createdAt,value
2023-03-19T00:00:32.195Z,13.60
2023-03-19T00:02:58.816Z,13.57
2023-03-19T00:05:25.419Z,13.55
2023-03-19T00:07:51.918Z,13.54
2023-03-19T00:10:18.564Z,13.53
2023-03-19T00:12:45.029Z,13.48
2023-03-19T00:15:14.344Z,13.50
2023-03-19T00:17:42.030Z,13.48
2023-03-19T00:20:10.178Z,13.47
2023-03-19T00:22:36.671Z,13.40
2023-03-19T00:25:03.647Z,13.46
2023-03-19T00:27:30.523Z,13.50
2023-03-19T00:29:56.934Z,13.48
2023-03-19T00:32:23.412Z,13.49
2023-03-19T00:34:49.788Z,13.48
2023-03-19T00:37:17.593Z,13.50
2023-03-19T00:39:44.017Z,13.47
2023-03-19T00:42:10.440Z,13.47
2023-03-19T00:44:36.824Z,13.46
2023-03-19T00:47:03.671Z,13.40
2023-03-19T00:49:30.218Z,13.41
2023-03-19T00:51:56.597Z,13.40
2023-03-19T00:54:23.142Z,13.37
2023-03-19T00:56:49.538Z,13.28
2023-03-19T00:59:16.002Z,13.26
2023-03-19T01:01:43.976Z,13.26
2023-03-19T01:04:11.236Z,13.26
2023-03-19T01:06:37.646Z,13.24
2023-03-19T01:09:04.087Z,13.23
2023-03-19T01:11:30.940Z,13.23
2023-03-19T01:13:57.380Z,13.20
2023-03-19T01:16:23.981Z,13.18
2023-03-19T01:18:50.847Z,13.19
2023-03-19T01:21:17.697Z,13.17
2023-03-19T01:23:44.166Z,13.12
2023-03-19T01:26:10.712Z,13.12
2023-03-19T01:28:37.196Z,13.11
2023-03-19T01:31:08.128Z,13.11
2023-03-19T01:33:34.860Z,13.10
2023-03-19T01:36:03.978Z,13.08
2023-03-19T01:38:31.051Z,13.03
2023-03-19T01:40:57.636Z,13.03
2023-03-19T01:43:29.616Z,12.98
2023-03-19T01:46:04.849Z,12.94
2023-03-19T01:48:52.768Z,12.92
2023-03-19T01:51:26.177Z,12.79
2023-03-19T01:53:59.959Z,12.88
2023-03-19T01:56:32.510Z,12.89
2023-03-19T01:59:04.014Z,12.86
2023-03-19T02:01:35.841Z,12.85
2023-03-19T02:04:07.153Z,12.84
2023-03-19T02:06:35.500Z,12.79
2023-03-19T02:09:02.762Z,12.76
2023-03-19T02:11:29.368Z,12.69
2023-03-19T02:13:55.840Z,12.65
2023-03-19T02:16:22.376Z,12.61
2023-03-19T02:18:49.513Z,12.57
2023-03-19T02:21:18.229Z,12.53
2023-03-19T02:24:02.444Z,12.50
2023-03-19T02:26:30.549Z,12.45
2023-03-19T02:28:57.042Z,12.44
2023-03-19T02:31:24.515Z,12.40
2023-03-19T02:34:03.576Z,12.36
2023-03-19T02:36:37.695Z,12.31
2023-03-19T02:39:07.617Z,12.27
2023-03-19T02:41:34.464Z,12.21
2023-03-19T02:44:03.290Z,12.16
2023-03-19T02:46:29.732Z,12.13
2023-03-19T02:48:56.149Z,12.07
2023-03-19T02:51:22.523Z,12.04
2023-03-19T02:53:48.967Z,12.04
2023-03-19T02:56:15.401Z,12.03
2023-03-19T02:58:41.928Z,12.03
2023-03-19T03:01:08.414Z,12.05
2023-03-19T03:03:35.276Z,12.08
2023-03-19T03:06:01.685Z,12.10
2023-03-19T03:08:28.386Z,12.09
2023-03-19T03:10:54.811Z,12.13
2023-03-19T03:13:21.997Z,12.16
2023-03-19T03:15:48.495Z,12.20
2023-03-19T03:18:14.928Z,12.21
2023-03-19T03:20:41.803Z,12.20
2023-03-19T03:23:08.275Z,12.16
2023-03-19T03:25:35.902Z,12.11
2023-03-19T03:28:03.076Z,12.11
2023-03-19T03:30:29.779Z,12.09
2023-03-19T03:32:59.446Z,12.08
2023-03-19T03:35:27.239Z,12.03
2023-03-19T03:37:53.847Z,11.99
2023-03-19T03:40:20.444Z,11.92
2023-03-19T03:42:47.085Z,11.88
2023-03-19T03:45:14.295Z,11.87
2023-03-19T03:47:43.406Z,11.84
2023-03-19T03:50:13.830Z,11.81
2023-03-19T03:52:40.966Z,11.77
2023-03-19T03:55:08.871Z,11.76
2023-03-19T03:57:36.102Z,11.76
2023-03-19T04:00:03.624Z,11.75
2023-03-19T04:02:30.812Z,11.74
2023-03-19T04:04:57.792Z,11.73
2023-03-19T04:07:24.186Z,11.73
2023-03-19T04:09:50.946Z,11.71
2023-03-19T04:12:18.242Z,11.67
2023-03-19T04:14:44.803Z,11.62
2023-03-19T04:17:11.234Z,11.61
2023-03-19T04:19:37.577Z,11.57
2023-03-19T04:22:04.108Z,11.55
2023-03-19T04:24:30.787Z,11.53
2023-03-19T04:26:57.626Z,11.49
2023-03-19T04:29:24.090Z,11.45
2023-03-19T04:31:51.056Z,11.41
2023-03-19T04:34:19.557Z,11.38
2023-03-19T04:36:46.120Z,11.39
2023-03-19T04:39:12.781Z,11.40
2023-03-19T04:41:39.827Z,11.43
2023-03-19T04:44:06.245Z,11.45
2023-03-19T04:46:32.784Z,11.48
2023-03-19T04:49:00.702Z,11.50
2023-03-19T04:51:28.054Z,11.50
2023-03-19T04:53:54.944Z,11.42
2023-03-19T04:56:21.790Z,11.52
2023-03-19T04:58:48.170Z,11.49
2023-03-19T05:01:14.733Z,11.43
2023-03-19T05:03:41.152Z,11.43
2023-03-19T05:06:07.809Z,11.42
2023-03-19T05:08:34.340Z,11.41
2023-03-19T05:11:00.961Z,11.36
2023-03-19T05:13:27.415Z,11.32
2023-03-19T05:15:55.401Z,11.28
2023-03-19T05:18:22.489Z,11.23
2023-03-19T05:20:49.622Z,11.21
2023-03-19T05:23:16.065Z,11.23
2023-03-19T05:25:42.716Z,11.21
2023-03-19T05:28:09.110Z,11.21
2023-03-19T05:30:36.293Z,11.19
2023-03-19T05:33:05.537Z,11.20
2023-03-19T05:35:32.222Z,11.19
2023-03-19T05:37:58.930Z,11.14
2023-03-19T05:40:26.512Z,11.13
2023-03-19T05:42:52.895Z,11.10
2023-03-19T05:45:19.488Z,11.07
2023-03-19T05:47:49.995Z,11.06
2023-03-19T05:50:17.843Z,11.03
2023-03-19T05:52:44.242Z,11.00
2023-03-19T05:55:11.197Z,11.00
2023-03-19T05:57:37.560Z,11.02
2023-03-19T06:00:06.649Z,10.98
2023-03-19T06:02:34.922Z,10.97
2023-03-19T06:05:03.178Z,10.94
2023-03-19T06:07:29.620Z,10.92
2023-03-19T06:09:56.321Z,10.89
2023-03-19T06:12:23.720Z,10.84
2023-03-19T06:14:50.451Z,10.84
2023-03-19T06:17:17.166Z,10.85
2023-03-19T06:19:43.845Z,10.83
2023-03-19T06:22:10.772Z,10.82
2023-03-19T06:24:37.328Z,10.84
2023-03-19T06:27:04.147Z,10.74
2023-03-19T06:29:30.654Z,10.79
2023-03-19T06:31:58.229Z,10.77
2023-03-19T06:34:25.374Z,10.79
2023-03-19T06:36:53.738Z,10.82
2023-03-19T06:39:20.239Z,10.80
2023-03-19T06:41:49.394Z,10.82
2023-03-19T06:44:16.326Z,10.86
2023-03-19T06:46:42.758Z,10.89
2023-03-19T06:49:12.027Z,10.90
2023-03-19T06:51:38.516Z,10.86
2023-03-19T06:54:04.964Z,10.83
2023-03-19T06:56:31.437Z,10.85
2023-03-19T06:58:57.870Z,10.85
2023-03-19T07:01:24.490Z,10.86
2023-03-19T07:03:51.119Z,10.88
2023-03-19T07:06:17.702Z,10.87
2023-03-19T07:08:47.274Z,10.89
2023-03-19T07:11:14.811Z,10.88
2023-03-19T07:13:41.536Z,10.91
2023-03-19T07:16:08.742Z,10.89
2023-03-19T07:18:35.769Z,10.87
2023-03-19T07:21:02.159Z,10.82
2023-03-19T07:23:28.614Z,10.78
2023-03-19T07:25:55.497Z,10.70
2023-03-19T07:28:22.213Z,10.65
2023-03-19T07:30:48.660Z,10.60
2023-03-19T07:33:15.066Z,10.57
2023-03-19T07:35:41.614Z,10.54
2023-03-19T07:38:08.071Z,10.55
2023-03-19T07:40:34.777Z,10.57
2023-03-19T07:43:01.334Z,10.58
2023-03-19T07:45:27.772Z,10.61
2023-03-19T07:47:54.169Z,10.61
2023-03-19T07:50:21.712Z,10.65
2023-03-19T07:52:51.225Z,10.66
2023-03-19T07:55:18.140Z,10.67
2023-03-19T07:57:44.646Z,10.69
2023-03-19T08:00:11.952Z,10.67
2023-03-19T08:02:38.399Z,10.64
2023-03-19T08:05:05.112Z,10.66
2023-03-19T08:07:32.302Z,10.68
2023-03-19T08:09:58.908Z,10.71
2023-03-19T08:12:26.191Z,10.74
2023-03-19T08:14:52.972Z,10.72
2023-03-19T08:17:19.667Z,10.77
2023-03-19T08:19:46.766Z,10.73
2023-03-19T08:22:13.325Z,10.65
2023-03-19T08:24:39.775Z,10.57
2023-03-19T08:27:06.787Z,10.55
2023-03-19T08:29:33.593Z,10.51
2023-03-19T08:32:01.238Z,10.50
2023-03-19T08:34:27.755Z,10.53
2023-03-19T08:36:54.127Z,10.58
2023-03-19T08:39:22.004Z,10.65
2023-03-19T08:41:48.484Z,10.72
2023-03-19T08:44:15.397Z,10.71
2023-03-19T08:46:42.638Z,10.71
2023-03-19T08:49:11.610Z,10.66
2023-03-19T08:51:38.398Z,10.65
2023-03-19T08:54:04.865Z,10.64
2023-03-19T08:56:31.266Z,10.59
2023-03-19T08:58:57.739Z,10.59
2023-03-19T09:01:24.368Z,10.59
2023-03-19T09:03:51.048Z,10.60
2023-03-19T09:06:17.830Z,10.64
2023-03-19T09:08:44.683Z,10.65
2023-03-19T09:11:11.159Z,10.70
2023-03-19T09:13:37.652Z,10.77
2023-03-19T09:16:04.554Z,10.77
2023-03-19T09:18:31.395Z,10.78
2023-03-19T09:20:58.066Z,10.80
2023-03-19T09:23:24.644Z,10.81
2023-03-19T09:25:51.309Z,10.86
2023-03-19T09:28:18.237Z,10.91
2023-03-19T09:30:49.301Z,10.93
2023-03-19T09:33:16.787Z,10.98
2023-03-19T09:35:43.819Z,11.00
2023-03-19T09:38:10.377Z,11.08
2023-03-19T09:40:41.732Z,11.10
2023-03-19T09:43:27.834Z,11.04
2023-03-19T09:45:54.359Z,11.00
2023-03-19T09:48:34.954Z,11.00
2023-03-19T09:51:06.616Z,11.00
2023-03-19T09:53:39.214Z,11.00
2023-03-19T09:56:11.121Z,11.04
2023-03-19T09:58:37.617Z,11.06
2023-03-19T10:01:04.194Z,11.06
2023-03-19T10:03:55.552Z,11.08
2023-03-19T10:06:35.557Z,11.14
2023-03-19T10:09:21.313Z,11.19
2023-03-19T10:12:02.904Z,11.23
2023-03-19T10:14:51.851Z,11.26
2023-03-19T10:17:42.105Z,11.33
2023-03-19T10:20:30.319Z,11.38
2023-03-19T10:23:19.802Z,11.50
2023-03-19T10:25:48.349Z,11.58
2023-03-19T10:28:16.880Z,11.66
2023-03-19T10:30:48.702Z,11.72
2023-03-19T10:33:24.574Z,11.78
2023-03-19T10:36:22.282Z,11.83
2023-03-19T10:38:48.773Z,11.85
2023-03-19T10:41:35.734Z,11.85
2023-03-19T10:44:06.072Z,11.86
2023-03-19T10:46:41.428Z,11.92
2023-03-19T10:49:15.733Z,11.98
2023-03-19T10:51:46.498Z,12.05
2023-03-19T10:54:23.875Z,12.07
2023-03-19T10:56:51.626Z,12.07
2023-03-19T10:59:31.420Z,12.13
2023-03-19T11:02:02.030Z,12.20
2023-03-19T11:04:29.619Z,12.20
2023-03-19T11:07:02.455Z,12.24
2023-03-19T11:09:36.859Z,12.24
2023-03-19T11:12:07.490Z,12.24
2023-03-19T11:14:45.441Z,12.28
2023-03-19T11:17:23.841Z,12.33
2023-03-19T11:20:10.414Z,12.36
2023-03-19T11:22:39.628Z,12.36
2023-03-19T11:25:25.612Z,12.34
2023-03-19T11:28:12.050Z,12.32
2023-03-19T11:30:55.778Z,12.32
2023-03-19T11:33:37.956Z,12.35
2023-03-19T11:36:13.718Z,12.38
2023-03-19T11:39:05.888Z,12.34
2023-03-19T11:42:01.507Z,12.34
2023-03-19T11:44:59.607Z,12.40
2023-03-19T11:48:16.182Z,12.45
2023-03-19T11:50:56.597Z,12.45
2023-03-19T11:53:47.984Z,12.48
2023-03-19T11:56:20.832Z,12.53
2023-03-19T11:58:55.532Z,12.55
2023-03-19T12:01:39.366Z,12.67
2023-03-19T12:04:34.065Z,12.76
2023-03-19T12:07:14.101Z,12.79
2023-03-19T12:09:46.217Z,12.79
2023-03-19T12:12:12.483Z,12.75
2023-03-19T12:14:41.841Z,12.72
2023-03-19T12:17:14.253Z,12.71
2023-03-19T12:19:53.714Z,12.74
2023-03-19T12:22:31.009Z,12.77
2023-03-19T12:25:04.337Z,12.80
2023-03-19T12:27:34.590Z,12.80
2023-03-19T12:30:03.970Z,12.81
2023-03-19T12:32:48.670Z,12.83
2023-03-19T12:35:17.130Z,12.84
2023-03-19T12:37:43.519Z,12.87
2023-03-19T12:40:14.990Z,12.89
2023-03-19T12:42:41.995Z,12.92
2023-03-19T12:45:25.402Z,12.95
2023-03-19T12:47:57.002Z,12.95
2023-03-19T12:50:25.398Z,12.97
2023-03-19T12:52:53.490Z,12.99
2023-03-19T12:55:19.838Z,13.01
2023-03-19T12:57:48.662Z,13.03
2023-03-19T13:00:22.778Z,13.04
2023-03-19T13:03:07.549Z,13.08
2023-03-19T13:05:36.938Z,13.13
2023-03-19T13:08:06.801Z,13.18
2023-03-19T13:10:36.336Z,13.24
2023-03-19T13:13:06.964Z,13.28
2023-03-19T13:15:37.201Z,13.27
2023-03-19T13:18:06.752Z,13.29
2023-03-19T13:20:33.133Z,13.31
2023-03-19T13:23:02.568Z,13.38
2023-03-19T13:25:38.337Z,13.51
2023-03-19T13:28:07.415Z,13.61
2023-03-19T13:30:33.938Z,13.72
2023-03-19T13:33:05.148Z,13.81
2023-03-19T13:35:41.577Z,13.90
2023-03-19T13:38:18.495Z,14.01
2023-03-19T13:40:46.635Z,14.13
2023-03-19T13:43:29.046Z,14.19
2023-03-19T13:46:15.718Z,14.27
2023-03-19T13:48:45.300Z,14.29
2023-03-19T13:51:20.651Z,14.23
2023-03-19T13:53:54.841Z,14.33
2023-03-19T13:56:30.046Z,14.33
2023-03-19T13:59:17.517Z,14.33
2023-03-19T14:01:47.673Z,14.34
2023-03-19T14:04:30.700Z,14.38
2023-03-19T14:06:57.048Z,14.41
2023-03-19T14:09:32.649Z,14.44
2023-03-19T14:12:11.605Z,14.49
2023-03-19T14:14:49.002Z,14.54
2023-03-19T14:17:19.485Z,14.57
2023-03-19T14:19:46.340Z,14.57
2023-03-19T14:22:32.621Z,14.60
2023-03-19T14:25:03.941Z,14.60
2023-03-19T14:27:33.230Z,14.58
2023-03-19T14:30:09.812Z,14.55
2023-03-19T14:32:40.934Z,14.55
2023-03-19T14:35:08.298Z,14.54
2023-03-19T14:37:37.625Z,14.55
2023-03-19T14:40:10.512Z,14.54
2023-03-19T14:42:36.874Z,14.43
2023-03-19T14:45:15.408Z,14.41
2023-03-19T14:47:41.661Z,14.39
2023-03-19T14:50:19.637Z,14.38
2023-03-19T14:52:52.146Z,14.41
2023-03-19T14:55:20.926Z,14.41
2023-03-19T14:57:47.195Z,14.38
2023-03-19T15:00:14.850Z,14.36
2023-03-19T15:02:50.826Z,14.35
2023-03-19T15:05:17.224Z,14.35
2023-03-19T15:07:45.700Z,14.36
2023-03-19T15:10:15.889Z,14.34
2023-03-19T15:12:51.327Z,14.30
2023-03-19T15:15:27.068Z,14.23
2023-03-19T15:18:03.855Z,14.18
2023-03-19T15:20:54.184Z,14.16
2023-03-19T15:23:27.329Z,14.12
2023-03-19T15:26:00.797Z,14.07
2023-03-19T15:28:38.000Z,14.00
2023-03-19T15:31:26.361Z,13.95
2023-03-19T15:33:52.695Z,13.96
2023-03-19T15:36:24.071Z,13.97
2023-03-19T15:38:56.384Z,13.97
2023-03-19T15:41:24.172Z,14.01
2023-03-19T15:43:51.311Z,14.02
2023-03-19T15:46:20.966Z,14.02
2023-03-19T15:48:50.790Z,14.00
2023-03-19T15:51:17.645Z,13.92
2023-03-19T15:53:45.094Z,13.87
2023-03-19T15:56:12.839Z,13.80
2023-03-19T15:58:41.696Z,13.78
2023-03-19T16:01:10.753Z,13.63
2023-03-19T16:03:38.494Z,13.67
2023-03-19T16:06:06.454Z,13.63
2023-03-19T16:08:33.010Z,13.62
2023-03-19T16:11:12.732Z,13.60
2023-03-19T16:13:39.701Z,13.52
2023-03-19T16:16:08.582Z,13.51
2023-03-19T16:18:42.165Z,13.45
2023-03-19T16:21:19.886Z,13.36
2023-03-19T16:23:51.438Z,13.30
2023-03-19T16:26:22.535Z,13.25
2023-03-19T16:28:55.778Z,13.19
2023-03-19T16:31:24.184Z,13.18
2023-03-19T16:33:52.532Z,13.16
2023-03-19T16:36:19.225Z,13.09
2023-03-19T16:38:56.858Z,13.03
2023-03-19T16:41:24.777Z,12.98
2023-03-19T16:43:52.580Z,12.93
2023-03-19T16:46:19.225Z,12.93
2023-03-19T16:48:45.665Z,12.91
2023-03-19T16:51:15.539Z,12.89
2023-03-19T16:53:43.814Z,12.79
2023-03-19T16:56:13.113Z,12.87
2023-03-19T16:58:43.792Z,12.85
2023-03-19T17:01:18.145Z,12.83
2023-03-19T17:03:45.312Z,12.80
2023-03-19T17:06:12.280Z,12.74
2023-03-19T17:08:41.398Z,12.72
2023-03-19T17:11:14.721Z,12.68
2023-03-19T17:13:43.697Z,12.64
2023-03-19T17:16:10.408Z,12.63
2023-03-19T17:18:38.956Z,12.65
2023-03-19T17:21:13.219Z,12.62
2023-03-19T17:23:39.806Z,12.57
2023-03-19T17:26:13.968Z,12.54
2023-03-19T17:28:40.322Z,12.51
2023-03-19T17:31:15.749Z,12.49
2023-03-19T17:33:42.492Z,12.46
2023-03-19T17:36:09.695Z,12.41
2023-03-19T17:38:36.060Z,12.35
2023-03-19T17:41:02.705Z,12.35
2023-03-19T17:43:29.254Z,12.39
2023-03-19T17:45:55.673Z,12.40
2023-03-19T17:48:23.788Z,12.40
2023-03-19T17:50:50.414Z,12.36
2023-03-19T17:53:18.547Z,12.32
2023-03-19T17:55:46.180Z,12.31
2023-03-19T17:58:16.932Z,12.32
2023-03-19T18:00:43.535Z,12.36
2023-03-19T18:03:13.100Z,12.38
2023-03-19T18:05:40.666Z,12.37
2023-03-19T18:08:07.527Z,12.32
2023-03-19T18:10:34.662Z,12.31
2023-03-19T18:13:01.736Z,12.26
2023-03-19T18:15:29.884Z,12.25
2023-03-19T18:17:57.007Z,12.23
2023-03-19T18:20:25.393Z,12.21
2023-03-19T18:22:52.062Z,12.16
2023-03-19T18:25:23.410Z,12.12
2023-03-19T18:27:49.867Z,12.09
2023-03-19T18:30:17.642Z,12.10
2023-03-19T18:32:46.350Z,12.10
2023-03-19T18:35:16.740Z,12.08
2023-03-19T18:37:44.619Z,12.07
2023-03-19T18:40:14.767Z,12.05
2023-03-19T18:42:41.162Z,12.07
2023-03-19T18:45:07.840Z,12.11
2023-03-19T18:47:34.357Z,12.14
2023-03-19T18:50:01.876Z,12.10
2023-03-19T18:52:28.192Z,12.09
2023-03-19T18:54:54.476Z,12.08
2023-03-19T18:57:20.913Z,12.03
2023-03-19T18:59:47.297Z,12.02
2023-03-19T19:02:21.682Z,12.03
2023-03-19T19:04:48.108Z,11.99
2023-03-19T19:07:15.327Z,12.01
2023-03-19T19:09:41.665Z,12.02
2023-03-19T19:12:09.438Z,12.01
2023-03-19T19:14:35.964Z,12.03
2023-03-19T19:17:03.141Z,12.04
2023-03-19T19:19:29.474Z,12.04
2023-03-19T19:21:56.009Z,12.05
2023-03-19T19:24:22.304Z,12.06
2023-03-19T19:26:53.287Z,12.04
2023-03-19T19:29:23.488Z,12.04
2023-03-19T19:31:50.256Z,12.01
2023-03-19T19:34:16.985Z,11.99
2023-03-19T19:36:43.518Z,11.91
2023-03-19T19:39:10.540Z,11.84
2023-03-19T19:41:37.006Z,11.79
2023-03-19T19:44:03.920Z,11.75
2023-03-19T19:46:31.185Z,11.70
2023-03-19T19:49:01.473Z,11.67
2023-03-19T19:51:28.922Z,11.63
2023-03-19T19:53:55.726Z,11.59
2023-03-19T19:56:23.324Z,11.54
2023-03-19T19:58:51.878Z,11.50
2023-03-19T20:01:22.906Z,11.49
2023-03-19T20:03:50.182Z,11.48
2023-03-19T20:06:16.581Z,11.45
2023-03-19T20:08:43.320Z,11.42
2023-03-19T20:11:15.495Z,11.35
2023-03-19T20:13:44.208Z,11.33
2023-03-19T20:16:11.520Z,11.31
2023-03-19T20:18:43.314Z,11.27
2023-03-19T20:21:12.093Z,11.23
2023-03-19T20:23:39.225Z,11.20
2023-03-19T20:26:07.092Z,11.21
2023-03-19T20:28:35.577Z,11.19
2023-03-19T20:31:03.174Z,11.19
2023-03-19T20:33:31.222Z,11.20
2023-03-19T20:35:58.179Z,11.16
2023-03-19T20:38:24.520Z,11.08
2023-03-19T20:40:52.446Z,11.05
2023-03-19T20:43:30.281Z,11.08
2023-03-19T20:45:57.694Z,11.12
2023-03-19T20:48:25.159Z,11.15
2023-03-19T20:50:52.222Z,11.15
2023-03-19T20:53:18.943Z,11.17
2023-03-19T20:55:45.963Z,11.18
2023-03-19T20:58:15.843Z,11.16
2023-03-19T21:00:42.130Z,11.16
2023-03-19T21:03:11.254Z,11.17
2023-03-19T21:05:38.429Z,11.19
2023-03-19T21:08:06.124Z,11.20
2023-03-19T21:10:39.173Z,11.17
2023-03-19T21:13:07.181Z,11.15
2023-03-19T21:15:33.559Z,11.11
2023-03-19T21:17:59.975Z,11.10
2023-03-19T21:20:28.663Z,11.09
2023-03-19T21:22:58.788Z,11.10
2023-03-19T21:25:27.836Z,11.10
2023-03-19T21:27:55.934Z,11.09
2023-03-19T21:30:23.175Z,11.11
2023-03-19T21:32:49.940Z,11.11
2023-03-19T21:35:23.829Z,11.10
2023-03-19T21:37:50.669Z,11.07
2023-03-19T21:40:19.808Z,11.07
2023-03-19T21:42:48.465Z,11.08
2023-03-19T21:45:17.826Z,11.07
2023-03-19T21:47:44.608Z,11.05
2023-03-19T21:50:20.075Z,11.03
2023-03-19T21:52:58.717Z,11.03
2023-03-19T21:55:27.457Z,11.04
2023-03-19T21:57:55.740Z,11.03
2023-03-19T22:00:22.374Z,10.98
2023-03-19T22:02:50.723Z,10.98
2023-03-19T22:05:24.819Z,10.98
2023-03-19T22:07:51.590Z,11.00
2023-03-19T22:10:18.677Z,10.99
2023-03-19T22:12:45.526Z,10.97
2023-03-19T22:15:34.722Z,10.93
2023-03-19T22:18:02.474Z,10.90
2023-03-19T22:20:29.085Z,10.91
2023-03-19T22:22:56.152Z,10.92
2023-03-19T22:25:22.685Z,10.93
2023-03-19T22:27:50.564Z,10.91
2023-03-19T22:30:24.835Z,10.91
2023-03-19T22:32:52.211Z,10.89
2023-03-19T22:35:19.207Z,10.89
2023-03-19T22:37:45.530Z,10.87
2023-03-19T22:40:12.994Z,10.88
2023-03-19T22:42:40.133Z,10.87
2023-03-19T22:45:07.842Z,10.86
2023-03-19T22:47:35.750Z,10.86
2023-03-19T22:50:02.464Z,10.86
2023-03-19T22:52:29.073Z,10.88
2023-03-19T22:54:55.373Z,10.86
2023-03-19T22:57:21.823Z,10.84
2023-03-19T22:59:48.142Z,10.84
2023-03-19T23:02:14.645Z,10.82
2023-03-19T23:04:41.388Z,10.80
2023-03-19T23:07:11.450Z,10.78
2023-03-19T23:09:38.691Z,10.75
2023-03-19T23:12:06.132Z,10.76
2023-03-19T23:14:32.550Z,10.76
2023-03-19T23:17:01.694Z,10.78
2023-03-19T23:19:29.777Z,10.79
2023-03-19T23:21:57.748Z,10.79
2023-03-19T23:24:25.268Z,10.74
2023-03-19T23:26:56.663Z,10.72
2023-03-19T23:29:24.690Z,10.70
2023-03-19T23:31:51.328Z,10.70
2023-03-19T23:34:17.844Z,10.67
2023-03-19T23:36:44.322Z,10.67
2023-03-19T23:39:10.661Z,10.66
2023-03-19T23:41:48.367Z,10.64
2023-03-19T23:44:15.574Z,10.61
2023-03-19T23:46:42.387Z,10.60
2023-03-19T23:49:16.612Z,10.59
2023-03-19T23:51:43.070Z,10.60
2023-03-19T23:54:24.734Z,10.60
2023-03-19T23:56:52.315Z,10.61
2023-03-19T23:59:18.727Z,10.59
